sensor_id;sensor_type;location;lat;lon;timestamp;P1;durP1;ratioP1;P2;durP2;ratioP2
72319;SDS011;60269;52.502;16.732;2022-11-20T00:02:56;7.77;;;2.13;;
72319;SDS011;60269;52.502;16.732;2022-11-20T00:06:27;10.82;;;3.53;;
72319;SDS011;60269;52.502;16.732;2022-11-20T00:10:00;7.20;;;2.40;;
72319;SDS011;60269;52.502;16.732;2022-11-20T00:13:32;9.10;;;3.23;;
72319;SDS011;60269;52.502;16.732;2022-11-20T00:17:04;9.52;;;3.38;;
72319;SDS011;60269;52.502;16.732;2022-11-20T00:20:36;12.45;;;3.50;;
72319;SDS011;60269;52.502;16.732;2022-11-20T00:24:08;8.03;;;2.27;;
72319;SDS011;60269;52.502;16.732;2022-11-20T00:27:40;9.80;;;3.65;;
72319;SDS011;60269;52.502;16.732;2022-11-20T00:31:13;10.20;;;3.67;;
72319;SDS011;60269;52.502;16.732;2022-11-20T00:34:46;4.65;;;1.23;;
72319;SDS011;60269;52.502;16.732;2022-11-20T00:38:18;10.30;;;3.53;;
72319;SDS011;60269;52.502;16.732;2022-11-20T00:41:50;9.73;;;2.90;;
72319;SDS011;60269;52.502;16.732;2022-11-20T00:45:22;7.03;;;2.85;;
72319;SDS011;60269;52.502;16.732;2022-11-20T00:48:54;6.77;;;2.43;;
72319;SDS011;60269;52.502;16.732;2022-11-20T00:52:26;13.10;;;3.88;;
72319;SDS011;60269;52.502;16.732;2022-11-20T00:55:59;7.43;;;2.58;;
72319;SDS011;60269;52.502;16.732;2022-11-20T00:59:32;8.23;;;2.47;;
72319;SDS011;60269;52.502;16.732;2022-11-20T01:03:04;6.13;;;1.38;;
72319;SDS011;60269;52.502;16.732;2022-11-20T01:06:37;3.65;;;0.95;;
72319;SDS011;60269;52.502;16.732;2022-11-20T01:10:10;7.70;;;1.75;;
72319;SDS011;60269;52.502;16.732;2022-11-20T01:13:43;10.63;;;3.50;;
72319;SDS011;60269;52.502;16.732;2022-11-20T01:17:16;8.00;;;2.50;;
72319;SDS011;60269;52.502;16.732;2022-11-20T01:20:49;12.57;;;4.35;;
72319;SDS011;60269;52.502;16.732;2022-11-20T01:24:21;8.00;;;2.83;;
72319;SDS011;60269;52.502;16.732;2022-11-20T01:27:53;9.05;;;2.97;;
72319;SDS011;60269;52.502;16.732;2022-11-20T01:31:26;10.18;;;2.80;;
72319;SDS011;60269;52.502;16.732;2022-11-20T01:35:00;11.33;;;2.87;;
72319;SDS011;60269;52.502;16.732;2022-11-20T01:38:32;10.35;;;2.63;;
72319;SDS011;60269;52.502;16.732;2022-11-20T01:42:04;11.90;;;2.53;;
72319;SDS011;60269;52.502;16.732;2022-11-20T01:45:56;7.20;;;1.98;;
72319;SDS011;60269;52.502;16.732;2022-11-20T01:49:50;9.53;;;2.33;;
72319;SDS011;60269;52.502;16.732;2022-11-20T01:53:27;9.27;;;2.60;;
72319;SDS011;60269;52.502;16.732;2022-11-20T01:57:03;11.15;;;3.65;;
72319;SDS011;60269;52.502;16.732;2022-11-20T02:00:38;16.33;;;4.27;;
72319;SDS011;60269;52.502;16.732;2022-11-20T02:04:11;10.05;;;3.08;;
72319;SDS011;60269;52.502;16.732;2022-11-20T02:07:44;11.95;;;3.88;;
72319;SDS011;60269;52.502;16.732;2022-11-20T02:11:18;12.33;;;4.20;;
72319;SDS011;60269;52.502;16.732;2022-11-20T02:14:50;15.95;;;3.03;;
72319;SDS011;60269;52.502;16.732;2022-11-20T02:18:22;5.68;;;2.03;;
72319;SDS011;60269;52.502;16.732;2022-11-20T02:25:56;11.03;;;3.27;;
72319;SDS011;60269;52.502;16.732;2022-11-20T02:33:01;14.55;;;4.22;;
72319;SDS011;60269;52.502;16.732;2022-11-20T02:36:33;19.70;;;5.23;;
72319;SDS011;60269;52.502;16.732;2022-11-20T02:40:07;13.40;;;4.38;;
72319;SDS011;60269;52.502;16.732;2022-11-20T02:43:39;11.00;;;3.00;;
72319;SDS011;60269;52.502;16.732;2022-11-20T02:47:11;11.33;;;3.27;;
72319;SDS011;60269;52.502;16.732;2022-11-20T02:50:43;11.23;;;3.40;;
72319;SDS011;60269;52.502;16.732;2022-11-20T02:54:15;11.13;;;3.83;;
72319;SDS011;60269;52.502;16.732;2022-11-20T02:57:47;13.82;;;4.68;;
72319;SDS011;60269;52.502;16.732;2022-11-20T03:01:19;13.10;;;3.70;;
72319;SDS011;60269;52.502;16.732;2022-11-20T03:04:51;12.15;;;3.65;;
72319;SDS011;60269;52.502;16.732;2022-11-20T03:08:22;13.65;;;4.95;;
72319;SDS011;60269;52.502;16.732;2022-11-20T03:11:54;14.17;;;4.73;;
72319;SDS011;60269;52.502;16.732;2022-11-20T03:15:27;12.18;;;4.93;;
72319;SDS011;60269;52.502;16.732;2022-11-20T03:18:59;10.00;;;3.38;;
72319;SDS011;60269;52.502;16.732;2022-11-20T03:22:31;14.97;;;6.13;;
72319;SDS011;60269;52.502;16.732;2022-11-20T03:26:16;10.15;;;2.55;;
72319;SDS011;60269;52.502;16.732;2022-11-20T03:29:50;10.73;;;4.30;;
72319;SDS011;60269;52.502;16.732;2022-11-20T03:33:22;13.27;;;4.47;;
72319;SDS011;60269;52.502;16.732;2022-11-20T03:36:54;14.73;;;5.17;;
72319;SDS011;60269;52.502;16.732;2022-11-20T03:40:25;18.63;;;6.25;;
72319;SDS011;60269;52.502;16.732;2022-11-20T03:43:58;15.02;;;4.97;;
72319;SDS011;60269;52.502;16.732;2022-11-20T03:47:32;14.50;;;5.07;;
72319;SDS011;60269;52.502;16.732;2022-11-20T03:54:40;7.03;;;2.70;;
72319;SDS011;60269;52.502;16.732;2022-11-20T03:58:12;9.67;;;3.97;;
72319;SDS011;60269;52.502;16.732;2022-11-20T04:01:44;16.33;;;5.00;;
72319;SDS011;60269;52.502;16.732;2022-11-20T04:05:20;19.63;;;5.95;;
72319;SDS011;60269;52.502;16.732;2022-11-20T04:08:53;13.07;;;3.83;;
72319;SDS011;60269;52.502;16.732;2022-11-20T04:12:27;20.43;;;6.83;;
72319;SDS011;60269;52.502;16.732;2022-11-20T04:15:58;20.88;;;6.32;;
72319;SDS011;60269;52.502;16.732;2022-11-20T04:19:30;13.23;;;4.28;;
72319;SDS011;60269;52.502;16.732;2022-11-20T04:23:02;17.07;;;5.57;;
72319;SDS011;60269;52.502;16.732;2022-11-20T04:26:34;8.07;;;2.95;;
72319;SDS011;60269;52.502;16.732;2022-11-20T04:30:06;17.27;;;5.53;;
72319;SDS011;60269;52.502;16.732;2022-11-20T04:33:38;17.80;;;5.40;;
72319;SDS011;60269;52.502;16.732;2022-11-20T04:37:11;19.13;;;6.72;;
72319;SDS011;60269;52.502;16.732;2022-11-20T04:40:42;12.82;;;4.90;;
72319;SDS011;60269;52.502;16.732;2022-11-20T04:44:14;16.00;;;5.57;;
72319;SDS011;60269;52.502;16.732;2022-11-20T04:47:46;12.53;;;3.97;;
72319;SDS011;60269;52.502;16.732;2022-11-20T04:51:18;20.13;;;6.60;;
72319;SDS011;60269;52.502;16.732;2022-11-20T04:54:50;21.27;;;6.25;;
72319;SDS011;60269;52.502;16.732;2022-11-20T04:58:24;24.03;;;6.77;;
72319;SDS011;60269;52.502;16.732;2022-11-20T05:01:56;19.23;;;6.63;;
72319;SDS011;60269;52.502;16.732;2022-11-20T05:05:28;21.35;;;6.63;;
72319;SDS011;60269;52.502;16.732;2022-11-20T05:09:00;21.27;;;5.87;;
72319;SDS011;60269;52.502;16.732;2022-11-20T05:12:33;15.27;;;4.03;;
72319;SDS011;60269;52.502;16.732;2022-11-20T05:16:10;15.10;;;5.07;;
72319;SDS011;60269;52.502;16.732;2022-11-20T05:19:44;26.52;;;8.27;;
72319;SDS011;60269;52.502;16.732;2022-11-20T05:23:22;20.07;;;6.63;;
72319;SDS011;60269;52.502;16.732;2022-11-20T05:26:54;20.15;;;6.95;;
72319;SDS011;60269;52.502;16.732;2022-11-20T05:30:26;8.50;;;2.42;;
72319;SDS011;60269;52.502;16.732;2022-11-20T05:33:58;18.07;;;4.93;;
72319;SDS011;60269;52.502;16.732;2022-11-20T05:37:30;19.17;;;4.13;;
72319;SDS011;60269;52.502;16.732;2022-11-20T05:41:03;20.80;;;6.53;;
72319;SDS011;60269;52.502;16.732;2022-11-20T05:44:36;15.23;;;5.03;;
72319;SDS011;60269;52.502;16.732;2022-11-20T05:48:07;10.52;;;2.78;;
72319;SDS011;60269;52.502;16.732;2022-11-20T05:51:39;12.43;;;3.92;;
72319;SDS011;60269;52.502;16.732;2022-11-20T05:55:11;14.30;;;5.22;;
72319;SDS011;60269;52.502;16.732;2022-11-20T05:58:43;13.90;;;4.60;;
72319;SDS011;60269;52.502;16.732;2022-11-20T06:02:16;14.93;;;5.10;;
72319;SDS011;60269;52.502;16.732;2022-11-20T06:05:49;24.17;;;5.13;;
72319;SDS011;60269;52.502;16.732;2022-11-20T06:09:21;5.40;;;1.47;;
72319;SDS011;60269;52.502;16.732;2022-11-20T06:12:53;15.18;;;4.97;;
72319;SDS011;60269;52.502;16.732;2022-11-20T06:16:29;12.75;;;3.88;;
72319;SDS011;60269;52.502;16.732;2022-11-20T06:20:01;12.73;;;4.60;;
72319;SDS011;60269;52.502;16.732;2022-11-20T06:23:33;6.60;;;1.55;;
72319;SDS011;60269;52.502;16.732;2022-11-20T06:27:06;11.00;;;3.13;;
72319;SDS011;60269;52.502;16.732;2022-11-20T06:30:38;13.70;;;4.63;;
72319;SDS011;60269;52.502;16.732;2022-11-20T06:34:16;3.90;;;1.30;;
72319;SDS011;60269;52.502;16.732;2022-11-20T06:37:48;7.88;;;1.83;;
72319;SDS011;60269;52.502;16.732;2022-11-20T06:41:28;5.65;;;1.65;;
72319;SDS011;60269;52.502;16.732;2022-11-20T06:45:00;9.90;;;4.00;;
72319;SDS011;60269;52.502;16.732;2022-11-20T06:48:38;13.13;;;4.93;;
72319;SDS011;60269;52.502;16.732;2022-11-20T06:52:10;18.63;;;4.50;;
72319;SDS011;60269;52.502;16.732;2022-11-20T06:55:45;11.67;;;2.73;;
72319;SDS011;60269;52.502;16.732;2022-11-20T06:59:36;7.22;;;2.88;;
72319;SDS011;60269;52.502;16.732;2022-11-20T07:03:09;17.88;;;2.85;;
72319;SDS011;60269;52.502;16.732;2022-11-20T07:06:42;13.38;;;4.18;;
72319;SDS011;60269;52.502;16.732;2022-11-20T07:10:14;6.73;;;1.53;;
72319;SDS011;60269;52.502;16.732;2022-11-20T07:13:46;10.70;;;3.28;;
72319;SDS011;60269;52.502;16.732;2022-11-20T07:17:18;19.45;;;5.38;;
72319;SDS011;60269;52.502;16.732;2022-11-20T07:20:52;12.93;;;2.67;;
72319;SDS011;60269;52.502;16.732;2022-11-20T07:24:36;9.90;;;2.75;;
72319;SDS011;60269;52.502;16.732;2022-11-20T07:28:19;11.07;;;3.65;;
72319;SDS011;60269;52.502;16.732;2022-11-20T07:31:51;6.30;;;2.27;;
72319;SDS011;60269;52.502;16.732;2022-11-20T07:35:23;11.20;;;3.55;;
72319;SDS011;60269;52.502;16.732;2022-11-20T07:38:56;11.00;;;3.78;;
72319;SDS011;60269;52.502;16.732;2022-11-20T07:42:27;7.20;;;2.25;;
72319;SDS011;60269;52.502;16.732;2022-11-20T07:46:01;18.90;;;5.67;;
72319;SDS011;60269;52.502;16.732;2022-11-20T07:49:32;6.03;;;2.00;;
72319;SDS011;60269;52.502;16.732;2022-11-20T07:53:05;14.30;;;3.70;;
72319;SDS011;60269;52.502;16.732;2022-11-20T07:56:36;14.83;;;4.97;;
72319;SDS011;60269;52.502;16.732;2022-11-20T08:00:13;8.68;;;2.92;;
72319;SDS011;60269;52.502;16.732;2022-11-20T08:03:45;9.23;;;3.08;;
72319;SDS011;60269;52.502;16.732;2022-11-20T08:07:17;10.57;;;3.00;;
72319;SDS011;60269;52.502;16.732;2022-11-20T08:10:49;10.35;;;3.42;;
72319;SDS011;60269;52.502;16.732;2022-11-20T08:14:21;4.85;;;1.55;;
72319;SDS011;60269;52.502;16.732;2022-11-20T08:17:58;7.03;;;2.85;;
72319;SDS011;60269;52.502;16.732;2022-11-20T08:21:55;11.00;;;3.37;;
72319;SDS011;60269;52.502;16.732;2022-11-20T08:25:28;13.35;;;4.65;;
72319;SDS011;60269;52.502;16.732;2022-11-20T08:29:01;11.13;;;3.05;;
72319;SDS011;60269;52.502;16.732;2022-11-20T08:32:32;9.10;;;3.03;;
72319;SDS011;60269;52.502;16.732;2022-11-20T08:36:07;11.82;;;3.38;;
72319;SDS011;60269;52.502;16.732;2022-11-20T08:39:39;15.80;;;5.78;;
72319;SDS011;60269;52.502;16.732;2022-11-20T08:43:11;12.93;;;4.57;;
72319;SDS011;60269;52.502;16.732;2022-11-20T08:46:42;13.75;;;4.93;;
72319;SDS011;60269;52.502;16.732;2022-11-20T08:50:15;17.65;;;6.82;;
72319;SDS011;60269;52.502;16.732;2022-11-20T08:53:48;11.50;;;3.72;;
72319;SDS011;60269;52.502;16.732;2022-11-20T08:57:20;16.70;;;5.40;;
72319;SDS011;60269;52.502;16.732;2022-11-20T09:00:52;15.85;;;5.78;;
72319;SDS011;60269;52.502;16.732;2022-11-20T09:04:24;18.00;;;6.25;;
72319;SDS011;60269;52.502;16.732;2022-11-20T09:07:56;15.30;;;5.10;;
72319;SDS011;60269;52.502;16.732;2022-11-20T09:11:29;18.70;;;5.07;;
72319;SDS011;60269;52.502;16.732;2022-11-20T09:15:01;11.70;;;4.47;;
72319;SDS011;60269;52.502;16.732;2022-11-20T09:18:33;16.17;;;5.43;;
72319;SDS011;60269;52.502;16.732;2022-11-20T09:22:08;15.55;;;5.60;;
72319;SDS011;60269;52.502;16.732;2022-11-20T09:25:40;10.20;;;3.42;;
72319;SDS011;60269;52.502;16.732;2022-11-20T09:29:12;16.10;;;5.47;;
72319;SDS011;60269;52.502;16.732;2022-11-20T09:32:44;16.73;;;5.17;;
72319;SDS011;60269;52.502;16.732;2022-11-20T09:36:16;21.08;;;6.53;;
72319;SDS011;60269;52.502;16.732;2022-11-20T09:39:50;18.38;;;5.72;;
72319;SDS011;60269;52.502;16.732;2022-11-20T09:43:24;18.60;;;5.43;;
72319;SDS011;60269;52.502;16.732;2022-11-20T09:47:34;14.45;;;5.05;;
72319;SDS011;60269;52.502;16.732;2022-11-20T09:51:30;18.75;;;5.25;;
72319;SDS011;60269;52.502;16.732;2022-11-20T09:55:21;19.07;;;5.97;;
72319;SDS011;60269;52.502;16.732;2022-11-20T09:58:57;14.95;;;5.45;;
72319;SDS011;60269;52.502;16.732;2022-11-20T10:06:38;23.88;;;8.30;;
72319;SDS011;60269;52.502;16.732;2022-11-20T10:10:15;14.10;;;4.23;;
72319;SDS011;60269;52.502;16.732;2022-11-20T10:13:55;13.63;;;3.35;;
72319;SDS011;60269;52.502;16.732;2022-11-20T10:25:37;10.75;;;4.38;;
72319;SDS011;60269;52.502;16.732;2022-11-20T10:29:16;19.63;;;6.30;;
72319;SDS011;60269;52.502;16.732;2022-11-20T10:33:13;17.60;;;6.30;;
72319;SDS011;60269;52.502;16.732;2022-11-20T10:36:58;19.83;;;4.80;;
72319;SDS011;60269;52.502;16.732;2022-11-20T10:40:37;12.15;;;4.13;;
72319;SDS011;60269;52.502;16.732;2022-11-20T10:44:12;17.77;;;5.80;;
72319;SDS011;60269;52.502;16.732;2022-11-20T10:51:42;20.48;;;6.35;;
72319;SDS011;60269;52.502;16.732;2022-11-20T10:59:25;21.30;;;6.77;;
72319;SDS011;60269;52.502;16.732;2022-11-20T11:03:00;15.65;;;6.22;;
72319;SDS011;60269;52.502;16.732;2022-11-20T11:06:35;23.45;;;7.38;;
72319;SDS011;60269;52.502;16.732;2022-11-20T11:14:06;23.52;;;7.72;;
72319;SDS011;60269;52.502;16.732;2022-11-20T11:17:46;17.30;;;4.93;;
72319;SDS011;60269;52.502;16.732;2022-11-20T11:21:25;21.15;;;6.13;;
72319;SDS011;60269;52.502;16.732;2022-11-20T11:24:58;22.67;;;7.13;;
72319;SDS011;60269;52.502;16.732;2022-11-20T11:28:30;18.05;;;6.55;;
72319;SDS011;60269;52.502;16.732;2022-11-20T11:32:07;13.73;;;4.72;;
72319;SDS011;60269;52.502;16.732;2022-11-20T11:35:46;17.37;;;6.80;;
72319;SDS011;60269;52.502;16.732;2022-11-20T11:39:22;22.17;;;6.82;;
72319;SDS011;60269;52.502;16.732;2022-11-20T11:42:57;18.17;;;5.28;;
72319;SDS011;60269;52.502;16.732;2022-11-20T11:46:33;18.03;;;4.93;;
72319;SDS011;60269;52.502;16.732;2022-11-20T11:53:58;19.10;;;5.88;;
72319;SDS011;60269;52.502;16.732;2022-11-20T11:57:39;22.10;;;6.40;;
72319;SDS011;60269;52.502;16.732;2022-11-20T12:09:05;14.13;;;5.05;;
72319;SDS011;60269;52.502;16.732;2022-11-20T12:12:42;19.73;;;5.60;;
72319;SDS011;60269;52.502;16.732;2022-11-20T12:16:18;16.67;;;5.03;;
72319;SDS011;60269;52.502;16.732;2022-11-20T12:19:51;18.95;;;6.95;;
72319;SDS011;60269;52.502;16.732;2022-11-20T12:23:41;10.90;;;3.70;;
72319;SDS011;60269;52.502;16.732;2022-11-20T12:31:13;21.30;;;6.15;;
72319;SDS011;60269;52.502;16.732;2022-11-20T12:38:42;13.47;;;4.97;;
72319;SDS011;60269;52.502;16.732;2022-11-20T12:46:52;18.45;;;6.20;;
72319;SDS011;60269;52.502;16.732;2022-11-20T12:50:44;18.47;;;6.67;;
72319;SDS011;60269;52.502;16.732;2022-11-20T12:58:33;25.77;;;5.63;;
72319;SDS011;60269;52.502;16.732;2022-11-20T13:02:36;21.87;;;6.60;;
72319;SDS011;60269;52.502;16.732;2022-11-20T13:06:12;24.20;;;6.53;;
72319;SDS011;60269;52.502;16.732;2022-11-20T13:09:48;18.17;;;6.40;;
72319;SDS011;60269;52.502;16.732;2022-11-20T13:13:29;22.25;;;6.90;;
72319;SDS011;60269;52.502;16.732;2022-11-20T13:17:06;12.50;;;5.33;;
72319;SDS011;60269;52.502;16.732;2022-11-20T13:20:50;24.38;;;7.88;;
72319;SDS011;60269;52.502;16.732;2022-11-20T13:24:26;21.90;;;5.00;;
72319;SDS011;60269;52.502;16.732;2022-11-20T13:28:44;15.90;;;5.70;;
72319;SDS011;60269;52.502;16.732;2022-11-20T13:32:22;19.75;;;6.32;;
72319;SDS011;60269;52.502;16.732;2022-11-20T13:35:59;23.13;;;6.93;;
72319;SDS011;60269;52.502;16.732;2022-11-20T13:39:36;27.03;;;9.00;;
72319;SDS011;60269;52.502;16.732;2022-11-20T13:43:51;27.90;;;7.70;;
72319;SDS011;60269;52.502;16.732;2022-11-20T13:47:21;24.77;;;8.27;;
72319;SDS011;60269;52.502;16.732;2022-11-20T13:50:58;21.25;;;7.03;;
72319;SDS011;60269;52.502;16.732;2022-11-20T13:58:40;15.30;;;5.35;;
72319;SDS011;60269;52.502;16.732;2022-11-20T14:02:23;23.13;;;7.63;;
72319;SDS011;60269;52.502;16.732;2022-11-20T14:06:01;26.47;;;8.27;;
72319;SDS011;60269;52.502;16.732;2022-11-20T14:09:35;19.02;;;7.05;;
72319;SDS011;60269;52.502;16.732;2022-11-20T14:13:12;27.08;;;8.25;;
72319;SDS011;60269;52.502;16.732;2022-11-20T14:16:50;12.97;;;4.17;;
72319;SDS011;60269;52.502;16.732;2022-11-20T14:20:24;30.63;;;8.70;;
72319;SDS011;60269;52.502;16.732;2022-11-20T14:24:05;24.05;;;7.70;;
72319;SDS011;60269;52.502;16.732;2022-11-20T14:27:38;25.23;;;8.18;;
72319;SDS011;60269;52.502;16.732;2022-11-20T14:31:16;24.83;;;8.37;;
72319;SDS011;60269;52.502;16.732;2022-11-20T14:34:53;22.27;;;8.80;;
72319;SDS011;60269;52.502;16.732;2022-11-20T14:38:27;23.20;;;7.65;;
72319;SDS011;60269;52.502;16.732;2022-11-20T14:42:00;24.03;;;8.43;;
72319;SDS011;60269;52.502;16.732;2022-11-20T14:45:32;15.63;;;5.57;;
72319;SDS011;60269;52.502;16.732;2022-11-20T14:49:04;12.63;;;5.38;;
72319;SDS011;60269;52.502;16.732;2022-11-20T14:52:37;25.13;;;7.97;;
72319;SDS011;60269;52.502;16.732;2022-11-20T14:56:08;26.13;;;7.45;;
72319;SDS011;60269;52.502;16.732;2022-11-20T14:59:40;17.38;;;6.50;;
72319;SDS011;60269;52.502;16.732;2022-11-20T15:03:15;27.27;;;8.55;;
72319;SDS011;60269;52.502;16.732;2022-11-20T15:06:49;27.30;;;8.97;;
72319;SDS011;60269;52.502;16.732;2022-11-20T15:10:24;27.95;;;8.60;;
72319;SDS011;60269;52.502;16.732;2022-11-20T15:13:59;27.77;;;8.00;;
72319;SDS011;60269;52.502;16.732;2022-11-20T15:17:34;29.00;;;9.20;;
72319;SDS011;60269;52.502;16.732;2022-11-20T15:21:11;28.30;;;8.93;;
72319;SDS011;60269;52.502;16.732;2022-11-20T15:24:44;26.23;;;9.13;;
72319;SDS011;60269;52.502;16.732;2022-11-20T15:31:54;25.33;;;8.50;;
72319;SDS011;60269;52.502;16.732;2022-11-20T15:35:26;26.98;;;9.95;;
72319;SDS011;60269;52.502;16.732;2022-11-20T15:38:58;27.70;;;9.68;;
72319;SDS011;60269;52.502;16.732;2022-11-20T15:42:30;25.43;;;8.13;;
72319;SDS011;60269;52.502;16.732;2022-11-20T15:46:03;26.40;;;9.02;;
72319;SDS011;60269;52.502;16.732;2022-11-20T15:49:43;26.80;;;8.23;;
72319;SDS011;60269;52.502;16.732;2022-11-20T15:53:14;33.53;;;10.00;;
72319;SDS011;60269;52.502;16.732;2022-11-20T15:56:47;29.50;;;9.15;;
72319;SDS011;60269;52.502;16.732;2022-11-20T16:00:20;26.58;;;10.02;;
72319;SDS011;60269;52.502;16.732;2022-11-20T16:03:54;25.93;;;8.83;;
72319;SDS011;60269;52.502;16.732;2022-11-20T16:07:26;30.65;;;10.00;;
72319;SDS011;60269;52.502;16.732;2022-11-20T16:10:58;27.92;;;9.45;;
72319;SDS011;60269;52.502;16.732;2022-11-20T16:14:30;33.05;;;10.85;;
72319;SDS011;60269;52.502;16.732;2022-11-20T16:18:21;50.17;;;18.13;;
72319;SDS011;60269;52.502;16.732;2022-11-20T16:21:53;47.53;;;15.98;;
72319;SDS011;60269;52.502;16.732;2022-11-20T16:25:33;33.85;;;11.68;;
72319;SDS011;60269;52.502;16.732;2022-11-20T16:29:05;28.03;;;8.17;;
72319;SDS011;60269;52.502;16.732;2022-11-20T16:32:38;29.00;;;7.85;;
72319;SDS011;60269;52.502;16.732;2022-11-20T16:36:13;23.20;;;8.60;;
72319;SDS011;60269;52.502;16.732;2022-11-20T16:39:46;27.50;;;8.93;;
72319;SDS011;60269;52.502;16.732;2022-11-20T16:43:18;23.13;;;7.65;;
72319;SDS011;60269;52.502;16.732;2022-11-20T16:46:50;29.25;;;8.48;;
72319;SDS011;60269;52.502;16.732;2022-11-20T16:50:22;26.17;;;10.05;;
72319;SDS011;60269;52.502;16.732;2022-11-20T16:53:54;11.73;;;4.17;;
72319;SDS011;60269;52.502;16.732;2022-11-20T16:57:29;24.42;;;8.23;;
72319;SDS011;60269;52.502;16.732;2022-11-20T17:01:05;23.85;;;8.20;;
72319;SDS011;60269;52.502;16.732;2022-11-20T17:04:37;25.07;;;8.47;;
72319;SDS011;60269;52.502;16.732;2022-11-20T17:08:10;21.88;;;8.18;;
72319;SDS011;60269;52.502;16.732;2022-11-20T17:11:41;26.67;;;9.52;;
72319;SDS011;60269;52.502;16.732;2022-11-20T17:15:14;31.80;;;11.43;;
72319;SDS011;60269;52.502;16.732;2022-11-20T17:18:46;31.85;;;10.88;;
72319;SDS011;60269;52.502;16.732;2022-11-20T17:22:18;30.88;;;9.68;;
72319;SDS011;60269;52.502;16.732;2022-11-20T17:25:50;33.33;;;9.27;;
72319;SDS011;60269;52.502;16.732;2022-11-20T17:29:22;26.20;;;9.20;;
72319;SDS011;60269;52.502;16.732;2022-11-20T17:32:54;34.45;;;11.88;;
72319;SDS011;60269;52.502;16.732;2022-11-20T17:36:27;29.45;;;10.73;;
72319;SDS011;60269;52.502;16.732;2022-11-20T17:40:00;38.20;;;11.93;;
72319;SDS011;60269;52.502;16.732;2022-11-20T17:43:32;34.30;;;12.15;;
72319;SDS011;60269;52.502;16.732;2022-11-20T17:47:06;32.50;;;11.80;;
72319;SDS011;60269;52.502;16.732;2022-11-20T17:50:39;39.90;;;12.77;;
72319;SDS011;60269;52.502;16.732;2022-11-20T17:54:11;32.60;;;12.27;;
72319;SDS011;60269;52.502;16.732;2022-11-20T17:57:43;38.90;;;13.88;;
72319;SDS011;60269;52.502;16.732;2022-11-20T18:01:23;19.55;;;7.13;;
72319;SDS011;60269;52.502;16.732;2022-11-20T18:04:55;16.77;;;7.57;;
72319;SDS011;60269;52.502;16.732;2022-11-20T18:08:27;32.47;;;11.30;;
72319;SDS011;60269;52.502;16.732;2022-11-20T18:12:00;32.30;;;11.25;;
72319;SDS011;60269;52.502;16.732;2022-11-20T18:15:32;36.77;;;13.43;;
72319;SDS011;60269;52.502;16.732;2022-11-20T18:19:04;26.35;;;9.50;;
72319;SDS011;60269;52.502;16.732;2022-11-20T18:22:36;26.88;;;9.77;;
72319;SDS011;60269;52.502;16.732;2022-11-20T18:26:08;31.77;;;11.70;;
72319;SDS011;60269;52.502;16.732;2022-11-20T18:29:39;30.40;;;12.45;;
72319;SDS011;60269;52.502;16.732;2022-11-20T18:33:11;37.40;;;14.93;;
72319;SDS011;60269;52.502;16.732;2022-11-20T18:36:44;35.05;;;13.27;;
72319;SDS011;60269;52.502;16.732;2022-11-20T18:40:16;30.37;;;12.37;;
72319;SDS011;60269;52.502;16.732;2022-11-20T18:43:48;22.23;;;6.95;;
72319;SDS011;60269;52.502;16.732;2022-11-20T18:47:38;30.73;;;11.05;;
72319;SDS011;60269;52.502;16.732;2022-11-20T18:51:11;33.50;;;11.63;;
72319;SDS011;60269;52.502;16.732;2022-11-20T18:54:47;37.20;;;13.30;;
72319;SDS011;60269;52.502;16.732;2022-11-20T18:58:19;19.20;;;5.72;;
72319;SDS011;60269;52.502;16.732;2022-11-20T19:01:51;25.00;;;7.60;;
72319;SDS011;60269;52.502;16.732;2022-11-20T19:05:23;20.67;;;7.53;;
72319;SDS011;60269;52.502;16.732;2022-11-20T19:08:55;17.98;;;6.78;;
72319;SDS011;60269;52.502;16.732;2022-11-20T19:12:27;29.98;;;9.30;;
72319;SDS011;60269;52.502;16.732;2022-11-20T19:16:02;20.67;;;7.70;;
72319;SDS011;60269;52.502;16.732;2022-11-20T19:19:36;18.90;;;7.95;;
72319;SDS011;60269;52.502;16.732;2022-11-20T19:23:08;40.28;;;11.80;;
72319;SDS011;60269;52.502;16.732;2022-11-20T19:26:40;33.57;;;11.90;;
72319;SDS011;60269;52.502;16.732;2022-11-20T19:30:12;29.10;;;10.70;;
72319;SDS011;60269;52.502;16.732;2022-11-20T19:33:44;18.67;;;6.32;;
72319;SDS011;60269;52.502;16.732;2022-11-20T19:37:17;25.10;;;10.43;;
72319;SDS011;60269;52.502;16.732;2022-11-20T19:40:49;30.38;;;9.15;;
72319;SDS011;60269;52.502;16.732;2022-11-20T19:44:21;27.30;;;10.10;;
72319;SDS011;60269;52.502;16.732;2022-11-20T19:47:53;21.10;;;8.05;;
72319;SDS011;60269;52.502;16.732;2022-11-20T19:51:45;24.87;;;9.13;;
72319;SDS011;60269;52.502;16.732;2022-11-20T19:55:18;26.75;;;9.13;;
72319;SDS011;60269;52.502;16.732;2022-11-20T19:58:54;33.85;;;10.25;;
72319;SDS011;60269;52.502;16.732;2022-11-20T20:02:28;16.27;;;5.87;;
72319;SDS011;60269;52.502;16.732;2022-11-20T20:06:02;25.85;;;9.13;;
72319;SDS011;60269;52.502;16.732;2022-11-20T20:09:36;22.52;;;8.30;;
72319;SDS011;60269;52.502;16.732;2022-11-20T20:13:08;27.00;;;9.20;;
72319;SDS011;60269;52.502;16.732;2022-11-20T20:16:41;23.60;;;9.00;;
72319;SDS011;60269;52.502;16.732;2022-11-20T20:20:13;27.42;;;9.98;;
72319;SDS011;60269;52.502;16.732;2022-11-20T20:23:45;23.02;;;8.85;;
72319;SDS011;60269;52.502;16.732;2022-11-20T20:27:22;29.13;;;9.87;;
72319;SDS011;60269;52.502;16.732;2022-11-20T20:30:54;13.10;;;4.45;;
72319;SDS011;60269;52.502;16.732;2022-11-20T20:34:27;24.75;;;8.32;;
72319;SDS011;60269;52.502;16.732;2022-11-20T20:38:02;28.73;;;8.97;;
72319;SDS011;60269;52.502;16.732;2022-11-20T20:41:34;31.50;;;10.13;;
72319;SDS011;60269;52.502;16.732;2022-11-20T20:45:06;23.75;;;7.45;;
72319;SDS011;60269;52.502;16.732;2022-11-20T20:48:39;28.97;;;10.40;;
72319;SDS011;60269;52.502;16.732;2022-11-20T20:52:12;16.13;;;6.10;;
72319;SDS011;60269;52.502;16.732;2022-11-20T20:55:59;23.90;;;7.40;;
72319;SDS011;60269;52.502;16.732;2022-11-20T20:59:34;25.48;;;9.55;;
72319;SDS011;60269;52.502;16.732;2022-11-20T21:03:07;34.03;;;12.20;;
72319;SDS011;60269;52.502;16.732;2022-11-20T21:06:39;26.45;;;10.20;;
72319;SDS011;60269;52.502;16.732;2022-11-20T21:10:11;25.27;;;9.25;;
72319;SDS011;60269;52.502;16.732;2022-11-20T21:13:46;20.23;;;6.30;;
72319;SDS011;60269;52.502;16.732;2022-11-20T21:17:19;31.98;;;9.70;;
72319;SDS011;60269;52.502;16.732;2022-11-20T21:20:51;19.92;;;6.03;;
72319;SDS011;60269;52.502;16.732;2022-11-20T21:24:42;18.37;;;7.03;;
72319;SDS011;60269;52.502;16.732;2022-11-20T21:28:14;20.15;;;6.63;;
72319;SDS011;60269;52.502;16.732;2022-11-20T21:31:49;20.77;;;5.72;;
72319;SDS011;60269;52.502;16.732;2022-11-20T21:35:21;23.00;;;7.30;;
72319;SDS011;60269;52.502;16.732;2022-11-20T21:38:54;21.23;;;8.33;;
72319;SDS011;60269;52.502;16.732;2022-11-20T21:42:26;19.77;;;8.02;;
72319;SDS011;60269;52.502;16.732;2022-11-20T21:46:02;19.33;;;7.82;;
72319;SDS011;60269;52.502;16.732;2022-11-20T21:49:38;35.63;;;9.10;;
72319;SDS011;60269;52.502;16.732;2022-11-20T21:53:10;19.55;;;4.95;;
72319;SDS011;60269;52.502;16.732;2022-11-20T21:56:42;22.52;;;7.07;;
72319;SDS011;60269;52.502;16.732;2022-11-20T22:00:13;22.23;;;6.67;;
72319;SDS011;60269;52.502;16.732;2022-11-20T22:03:46;19.02;;;5.97;;
72319;SDS011;60269;52.502;16.732;2022-11-20T22:07:21;13.00;;;5.28;;